sensor_id;sensor_type;location;lat;lon;timestamp;P1;durP1;ratioP1;P2;durP2;ratioP2
60344;SDS011;46188;52.324;8.032;2022-11-20T00:01:06;27.58;;;14.82;;
60344;SDS011;46188;52.324;8.032;2022-11-20T00:03:34;24.83;;;12.68;;
60344;SDS011;46188;52.324;8.032;2022-11-20T00:06:00;23.80;;;12.75;;
60344;SDS011;46188;52.324;8.032;2022-11-20T00:08:30;25.85;;;12.32;;
60344;SDS011;46188;52.324;8.032;2022-11-20T00:10:55;19.42;;;11.80;;
60344;SDS011;46188;52.324;8.032;2022-11-20T00:13:21;23.98;;;12.73;;
60344;SDS011;46188;52.324;8.032;2022-11-20T00:15:46;20.80;;;11.50;;
60344;SDS011;46188;52.324;8.032;2022-11-20T00:18:12;17.90;;;10.93;;
60344;SDS011;46188;52.324;8.032;2022-11-20T00:20:37;19.95;;;12.40;;
60344;SDS011;46188;52.324;8.032;2022-11-20T00:23:03;20.73;;;11.57;;
60344;SDS011;46188;52.324;8.032;2022-11-20T00:25:28;17.50;;;10.65;;
60344;SDS011;46188;52.324;8.032;2022-11-20T00:27:53;24.83;;;12.32;;
60344;SDS011;46188;52.324;8.032;2022-11-20T00:30:19;19.00;;;11.05;;
60344;SDS011;46188;52.324;8.032;2022-11-20T00:32:44;20.98;;;12.38;;
60344;SDS011;46188;52.324;8.032;2022-11-20T00:35:10;19.80;;;11.93;;
60344;SDS011;46188;52.324;8.032;2022-11-20T00:37:35;23.65;;;12.73;;
60344;SDS011;46188;52.324;8.032;2022-11-20T00:40:01;32.67;;;16.73;;
60344;SDS011;46188;52.324;8.032;2022-11-20T00:42:26;26.42;;;15.27;;
60344;SDS011;46188;52.324;8.032;2022-11-20T00:44:51;27.45;;;15.35;;
60344;SDS011;46188;52.324;8.032;2022-11-20T00:47:17;23.15;;;14.10;;
60344;SDS011;46188;52.324;8.032;2022-11-20T00:49:42;31.52;;;13.32;;
60344;SDS011;46188;52.324;8.032;2022-11-20T00:52:08;26.42;;;13.73;;
60344;SDS011;46188;52.324;8.032;2022-11-20T00:54:33;21.30;;;12.20;;
60344;SDS011;46188;52.324;8.032;2022-11-20T00:56:59;23.33;;;13.27;;
60344;SDS011;46188;52.324;8.032;2022-11-20T00:59:24;22.15;;;12.00;;
60344;SDS011;46188;52.324;8.032;2022-11-20T01:01:50;23.33;;;13.27;;
60344;SDS011;46188;52.324;8.032;2022-11-20T01:04:15;26.20;;;12.77;;
60344;SDS011;46188;52.324;8.032;2022-11-20T01:06:41;22.77;;;12.60;;
60344;SDS011;46188;52.324;8.032;2022-11-20T01:09:10;26.55;;;13.07;;
60344;SDS011;46188;52.324;8.032;2022-11-20T01:11:39;21.48;;;12.82;;
60344;SDS011;46188;52.324;8.032;2022-11-20T01:14:07;22.80;;;13.07;;
60344;SDS011;46188;52.324;8.032;2022-11-20T01:16:36;21.95;;;12.55;;
60344;SDS011;46188;52.324;8.032;2022-11-20T01:19:04;20.58;;;12.52;;
60344;SDS011;46188;52.324;8.032;2022-11-20T01:21:33;21.50;;;12.27;;
60344;SDS011;46188;52.324;8.032;2022-11-20T01:24:03;18.20;;;11.45;;
60344;SDS011;46188;52.324;8.032;2022-11-20T01:26:31;21.48;;;11.95;;
60344;SDS011;46188;52.324;8.032;2022-11-20T01:28:58;22.30;;;11.57;;
60344;SDS011;46188;52.324;8.032;2022-11-20T01:34:01;21.63;;;11.68;;
60344;SDS011;46188;52.324;8.032;2022-11-20T01:36:29;20.30;;;11.63;;
60344;SDS011;46188;52.324;8.032;2022-11-20T01:38:57;21.13;;;11.85;;
60344;SDS011;46188;52.324;8.032;2022-11-20T01:41:25;19.85;;;11.13;;
60344;SDS011;46188;52.324;8.032;2022-11-20T01:44:11;21.30;;;11.05;;
60344;SDS011;46188;52.324;8.032;2022-11-20T01:46:40;19.30;;;11.23;;
60344;SDS011;46188;52.324;8.032;2022-11-20T01:49:17;18.67;;;10.60;;
60344;SDS011;46188;52.324;8.032;2022-11-20T01:51:50;18.75;;;9.93;;
60344;SDS011;46188;52.324;8.032;2022-11-20T01:54:42;17.75;;;10.10;;
60344;SDS011;46188;52.324;8.032;2022-11-20T01:57:16;18.25;;;9.75;;
60344;SDS011;46188;52.324;8.032;2022-11-20T01:59:46;16.00;;;9.48;;
60344;SDS011;46188;52.324;8.032;2022-11-20T02:02:19;17.90;;;10.65;;
60344;SDS011;46188;52.324;8.032;2022-11-20T02:04:46;15.93;;;9.52;;
60344;SDS011;46188;52.324;8.032;2022-11-20T02:07:12;18.35;;;9.23;;
60344;SDS011;46188;52.324;8.032;2022-11-20T02:09:38;15.90;;;9.05;;
60344;SDS011;46188;52.324;8.032;2022-11-20T02:12:04;19.83;;;9.65;;
60344;SDS011;46188;52.324;8.032;2022-11-20T02:14:30;17.85;;;9.55;;
60344;SDS011;46188;52.324;8.032;2022-11-20T02:16:56;19.00;;;10.18;;
60344;SDS011;46188;52.324;8.032;2022-11-20T02:19:23;18.88;;;9.82;;
60344;SDS011;46188;52.324;8.032;2022-11-20T02:24:25;17.30;;;8.30;;
60344;SDS011;46188;52.324;8.032;2022-11-20T02:26:54;20.45;;;10.65;;
60344;SDS011;46188;52.324;8.032;2022-11-20T02:32:03;17.90;;;9.43;;
60344;SDS011;46188;52.324;8.032;2022-11-20T02:34:28;14.15;;;9.20;;
60344;SDS011;46188;52.324;8.032;2022-11-20T02:36:54;16.95;;;7.93;;
60344;SDS011;46188;52.324;8.032;2022-11-20T02:39:21;18.63;;;9.68;;
60344;SDS011;46188;52.324;8.032;2022-11-20T02:41:50;16.70;;;8.98;;
60344;SDS011;46188;52.324;8.032;2022-11-20T02:44:18;17.08;;;9.07;;
60344;SDS011;46188;52.324;8.032;2022-11-20T02:46:43;16.45;;;8.38;;
60344;SDS011;46188;52.324;8.032;2022-11-20T02:49:09;15.60;;;8.93;;
60344;SDS011;46188;52.324;8.032;2022-11-20T02:51:34;17.20;;;8.68;;
60344;SDS011;46188;52.324;8.032;2022-11-20T02:53:59;15.20;;;8.88;;
60344;SDS011;46188;52.324;8.032;2022-11-20T02:56:25;18.45;;;9.40;;
60344;SDS011;46188;52.324;8.032;2022-11-20T02:58:50;17.42;;;8.93;;
60344;SDS011;46188;52.324;8.032;2022-11-20T03:01:16;15.15;;;9.63;;
60344;SDS011;46188;52.324;8.032;2022-11-20T03:03:41;16.50;;;9.27;;
60344;SDS011;46188;52.324;8.032;2022-11-20T03:06:07;18.15;;;9.35;;
60344;SDS011;46188;52.324;8.032;2022-11-20T03:08:33;16.67;;;9.25;;
60344;SDS011;46188;52.324;8.032;2022-11-20T03:11:02;15.63;;;8.18;;
60344;SDS011;46188;52.324;8.032;2022-11-20T03:13:29;18.80;;;9.50;;
60344;SDS011;46188;52.324;8.032;2022-11-20T03:15:54;15.50;;;9.10;;
60344;SDS011;46188;52.324;8.032;2022-11-20T03:18:20;16.13;;;8.73;;
60344;SDS011;46188;52.324;8.032;2022-11-20T03:20:45;16.02;;;8.05;;
60344;SDS011;46188;52.324;8.032;2022-11-20T03:23:11;15.88;;;8.35;;
60344;SDS011;46188;52.324;8.032;2022-11-20T03:25:36;18.23;;;8.95;;
60344;SDS011;46188;52.324;8.032;2022-11-20T03:28:02;15.05;;;9.45;;
60344;SDS011;46188;52.324;8.032;2022-11-20T03:30:27;19.65;;;10.32;;
60344;SDS011;46188;52.324;8.032;2022-11-20T03:32:53;18.48;;;9.82;;
60344;SDS011;46188;52.324;8.032;2022-11-20T03:35:19;18.27;;;9.82;;
60344;SDS011;46188;52.324;8.032;2022-11-20T03:37:44;18.08;;;9.68;;
60344;SDS011;46188;52.324;8.032;2022-11-20T03:40:10;20.23;;;8.80;;
60344;SDS011;46188;52.324;8.032;2022-11-20T03:42:36;16.85;;;8.90;;
60344;SDS011;46188;52.324;8.032;2022-11-20T03:45:11;18.25;;;9.38;;
60344;SDS011;46188;52.324;8.032;2022-11-20T03:47:37;16.90;;;10.30;;
60344;SDS011;46188;52.324;8.032;2022-11-20T03:50:03;21.25;;;11.52;;
60344;SDS011;46188;52.324;8.032;2022-11-20T03:52:29;24.90;;;11.65;;
60344;SDS011;46188;52.324;8.032;2022-11-20T03:54:54;14.25;;;8.80;;
60344;SDS011;46188;52.324;8.032;2022-11-20T03:57:20;14.60;;;8.95;;
60344;SDS011;46188;52.324;8.032;2022-11-20T03:59:45;19.35;;;9.65;;
60344;SDS011;46188;52.324;8.032;2022-11-20T04:02:10;18.15;;;9.35;;
60344;SDS011;46188;52.324;8.032;2022-11-20T04:04:36;19.65;;;9.02;;
60344;SDS011;46188;52.324;8.032;2022-11-20T04:07:01;14.23;;;8.38;;
60344;SDS011;46188;52.324;8.032;2022-11-20T04:09:27;18.13;;;9.40;;
60344;SDS011;46188;52.324;8.032;2022-11-20T04:11:53;15.88;;;8.57;;
60344;SDS011;46188;52.324;8.032;2022-11-20T04:14:18;16.27;;;8.88;;
60344;SDS011;46188;52.324;8.032;2022-11-20T04:16:45;16.42;;;7.93;;
60344;SDS011;46188;52.324;8.032;2022-11-20T04:19:11;16.88;;;9.75;;
60344;SDS011;46188;52.324;8.032;2022-11-20T04:21:39;18.58;;;10.23;;
60344;SDS011;46188;52.324;8.032;2022-11-20T04:24:04;19.38;;;10.68;;
60344;SDS011;46188;52.324;8.032;2022-11-20T04:26:30;16.95;;;9.50;;
60344;SDS011;46188;52.324;8.032;2022-11-20T04:28:56;17.02;;;9.93;;
60344;SDS011;46188;52.324;8.032;2022-11-20T04:31:23;18.77;;;9.98;;
60344;SDS011;46188;52.324;8.032;2022-11-20T04:33:51;19.48;;;10.75;;
60344;SDS011;46188;52.324;8.032;2022-11-20T04:36:21;19.45;;;10.13;;
60344;SDS011;46188;52.324;8.032;2022-11-20T04:38:55;22.55;;;11.82;;
60344;SDS011;46188;52.324;8.032;2022-11-20T04:41:22;26.98;;;13.18;;
60344;SDS011;46188;52.324;8.032;2022-11-20T04:43:54;20.35;;;11.10;;
60344;SDS011;46188;52.324;8.032;2022-11-20T04:46:24;22.23;;;12.27;;
60344;SDS011;46188;52.324;8.032;2022-11-20T04:48:51;23.20;;;11.38;;
60344;SDS011;46188;52.324;8.032;2022-11-20T04:51:16;27.60;;;12.50;;
60344;SDS011;46188;52.324;8.032;2022-11-20T04:53:42;22.45;;;12.43;;
60344;SDS011;46188;52.324;8.032;2022-11-20T04:56:08;19.75;;;12.23;;
60344;SDS011;46188;52.324;8.032;2022-11-20T04:58:35;21.05;;;12.48;;
60344;SDS011;46188;52.324;8.032;2022-11-20T05:01:05;22.48;;;11.68;;
60344;SDS011;46188;52.324;8.032;2022-11-20T05:03:30;22.90;;;12.30;;
60344;SDS011;46188;52.324;8.032;2022-11-20T05:05:56;26.15;;;12.77;;
60344;SDS011;46188;52.324;8.032;2022-11-20T05:08:21;23.75;;;11.88;;
60344;SDS011;46188;52.324;8.032;2022-11-20T05:10:47;20.30;;;10.95;;
60344;SDS011;46188;52.324;8.032;2022-11-20T05:13:12;20.48;;;11.38;;
60344;SDS011;46188;52.324;8.032;2022-11-20T05:15:37;19.92;;;10.45;;
60344;SDS011;46188;52.324;8.032;2022-11-20T05:18:03;20.33;;;11.70;;
60344;SDS011;46188;52.324;8.032;2022-11-20T05:20:28;17.95;;;10.75;;
60344;SDS011;46188;52.324;8.032;2022-11-20T05:22:56;23.63;;;11.25;;
60344;SDS011;46188;52.324;8.032;2022-11-20T05:25:22;18.42;;;10.85;;
60344;SDS011;46188;52.324;8.032;2022-11-20T05:27:48;16.67;;;10.20;;
60344;SDS011;46188;52.324;8.032;2022-11-20T05:30:13;20.88;;;10.85;;
60344;SDS011;46188;52.324;8.032;2022-11-20T05:32:39;18.77;;;10.35;;
60344;SDS011;46188;52.324;8.032;2022-11-20T05:35:04;18.80;;;10.77;;
60344;SDS011;46188;52.324;8.032;2022-11-20T05:37:30;22.58;;;11.88;;
60344;SDS011;46188;52.324;8.032;2022-11-20T05:39:55;21.45;;;10.57;;
60344;SDS011;46188;52.324;8.032;2022-11-20T05:42:21;17.73;;;10.40;;
60344;SDS011;46188;52.324;8.032;2022-11-20T05:44:56;17.35;;;9.40;;
60344;SDS011;46188;52.324;8.032;2022-11-20T05:47:26;19.27;;;9.88;;
60344;SDS011;46188;52.324;8.032;2022-11-20T05:49:52;18.75;;;9.98;;
60344;SDS011;46188;52.324;8.032;2022-11-20T05:52:17;21.60;;;10.02;;
60344;SDS011;46188;52.324;8.032;2022-11-20T05:54:43;20.08;;;10.30;;
60344;SDS011;46188;52.324;8.032;2022-11-20T05:57:08;21.38;;;10.65;;
60344;SDS011;46188;52.324;8.032;2022-11-20T05:59:34;19.17;;;9.82;;
60344;SDS011;46188;52.324;8.032;2022-11-20T06:01:59;18.55;;;9.65;;
60344;SDS011;46188;52.324;8.032;2022-11-20T06:04:25;19.60;;;9.93;;
60344;SDS011;46188;52.324;8.032;2022-11-20T06:06:50;14.48;;;8.35;;
60344;SDS011;46188;52.324;8.032;2022-11-20T06:09:16;20.90;;;9.98;;
60344;SDS011;46188;52.324;8.032;2022-11-20T06:11:41;16.30;;;9.98;;
60344;SDS011;46188;52.324;8.032;2022-11-20T06:14:07;19.23;;;9.20;;
60344;SDS011;46188;52.324;8.032;2022-11-20T06:16:32;16.85;;;9.23;;
60344;SDS011;46188;52.324;8.032;2022-11-20T06:18:57;21.42;;;10.77;;
60344;SDS011;46188;52.324;8.032;2022-11-20T06:21:23;16.55;;;9.27;;
60344;SDS011;46188;52.324;8.032;2022-11-20T06:23:49;16.20;;;9.40;;
60344;SDS011;46188;52.324;8.032;2022-11-20T06:26:20;16.48;;;10.15;;
60344;SDS011;46188;52.324;8.032;2022-11-20T06:28:47;18.58;;;10.27;;
60344;SDS011;46188;52.324;8.032;2022-11-20T06:31:13;17.98;;;9.32;;
60344;SDS011;46188;52.324;8.032;2022-11-20T06:33:41;22.98;;;10.23;;
60344;SDS011;46188;52.324;8.032;2022-11-20T06:36:07;22.00;;;10.13;;
60344;SDS011;46188;52.324;8.032;2022-11-20T06:38:34;17.65;;;10.02;;
60344;SDS011;46188;52.324;8.032;2022-11-20T06:41:00;17.70;;;9.82;;
60344;SDS011;46188;52.324;8.032;2022-11-20T06:43:25;17.27;;;10.60;;
60344;SDS011;46188;52.324;8.032;2022-11-20T06:45:54;16.98;;;9.68;;
60344;SDS011;46188;52.324;8.032;2022-11-20T06:48:22;18.48;;;9.65;;
60344;SDS011;46188;52.324;8.032;2022-11-20T06:50:48;23.33;;;11.57;;
60344;SDS011;46188;52.324;8.032;2022-11-20T06:53:14;20.67;;;10.95;;
60344;SDS011;46188;52.324;8.032;2022-11-20T06:55:43;23.65;;;12.52;;
60344;SDS011;46188;52.324;8.032;2022-11-20T06:58:09;17.75;;;11.05;;
60344;SDS011;46188;52.324;8.032;2022-11-20T07:00:35;21.40;;;11.25;;
60344;SDS011;46188;52.324;8.032;2022-11-20T07:03:03;18.40;;;9.95;;
60344;SDS011;46188;52.324;8.032;2022-11-20T07:05:30;17.80;;;10.35;;
60344;SDS011;46188;52.324;8.032;2022-11-20T07:07:56;23.08;;;11.38;;
60344;SDS011;46188;52.324;8.032;2022-11-20T07:10:22;21.75;;;11.95;;
60344;SDS011;46188;52.324;8.032;2022-11-20T07:12:51;20.58;;;11.57;;
60344;SDS011;46188;52.324;8.032;2022-11-20T07:15:18;20.35;;;10.80;;
60344;SDS011;46188;52.324;8.032;2022-11-20T07:17:44;19.90;;;11.13;;
60344;SDS011;46188;52.324;8.032;2022-11-20T07:20:10;21.42;;;11.57;;
60344;SDS011;46188;52.324;8.032;2022-11-20T07:22:36;20.17;;;11.55;;
60344;SDS011;46188;52.324;8.032;2022-11-20T07:25:02;20.83;;;11.65;;
60344;SDS011;46188;52.324;8.032;2022-11-20T07:27:28;20.27;;;10.52;;
60344;SDS011;46188;52.324;8.032;2022-11-20T07:29:54;21.67;;;10.43;;
60344;SDS011;46188;52.324;8.032;2022-11-20T07:32:19;20.05;;;10.90;;
60344;SDS011;46188;52.324;8.032;2022-11-20T07:34:45;17.67;;;10.70;;
60344;SDS011;46188;52.324;8.032;2022-11-20T07:37:11;16.98;;;9.68;;
60344;SDS011;46188;52.324;8.032;2022-11-20T07:39:36;19.55;;;10.18;;
60344;SDS011;46188;52.324;8.032;2022-11-20T07:42:02;18.33;;;9.95;;
60344;SDS011;46188;52.324;8.032;2022-11-20T07:44:27;16.95;;;9.20;;
60344;SDS011;46188;52.324;8.032;2022-11-20T07:46:53;16.75;;;9.68;;
60344;SDS011;46188;52.324;8.032;2022-11-20T07:49:18;15.10;;;8.02;;
60344;SDS011;46188;52.324;8.032;2022-11-20T07:51:44;16.30;;;8.88;;
60344;SDS011;46188;52.324;8.032;2022-11-20T07:54:09;16.83;;;8.98;;
60344;SDS011;46188;52.324;8.032;2022-11-20T07:56:35;17.70;;;9.27;;
60344;SDS011;46188;52.324;8.032;2022-11-20T07:59:00;15.45;;;9.90;;
60344;SDS011;46188;52.324;8.032;2022-11-20T08:01:25;19.10;;;10.18;;
60344;SDS011;46188;52.324;8.032;2022-11-20T08:03:51;17.73;;;8.70;;
60344;SDS011;46188;52.324;8.032;2022-11-20T08:06:16;17.42;;;8.73;;
60344;SDS011;46188;52.324;8.032;2022-11-20T08:08:43;18.85;;;9.93;;
60344;SDS011;46188;52.324;8.032;2022-11-20T08:11:09;14.43;;;9.20;;
60344;SDS011;46188;52.324;8.032;2022-11-20T08:13:53;18.92;;;10.07;;
60344;SDS011;46188;52.324;8.032;2022-11-20T08:16:37;17.55;;;10.68;;
60344;SDS011;46188;52.324;8.032;2022-11-20T08:19:03;16.25;;;10.50;;
60344;SDS011;46188;52.324;8.032;2022-11-20T08:21:29;19.02;;;11.68;;
60344;SDS011;46188;52.324;8.032;2022-11-20T08:23:55;19.35;;;10.95;;
60344;SDS011;46188;52.324;8.032;2022-11-20T08:26:22;17.05;;;10.27;;
60344;SDS011;46188;52.324;8.032;2022-11-20T08:28:48;17.17;;;10.95;;
60344;SDS011;46188;52.324;8.032;2022-11-20T08:31:14;18.67;;;10.82;;
60344;SDS011;46188;52.324;8.032;2022-11-20T08:33:39;23.20;;;14.40;;
60344;SDS011;46188;52.324;8.032;2022-11-20T08:36:05;21.60;;;12.13;;
60344;SDS011;46188;52.324;8.032;2022-11-20T08:38:31;19.25;;;10.95;;
60344;SDS011;46188;52.324;8.032;2022-11-20T08:41:01;22.23;;;12.63;;
60344;SDS011;46188;52.324;8.032;2022-11-20T08:43:47;22.48;;;13.57;;
60344;SDS011;46188;52.324;8.032;2022-11-20T08:46:12;23.02;;;14.40;;
60344;SDS011;46188;52.324;8.032;2022-11-20T08:48:38;23.17;;;11.70;;
60344;SDS011;46188;52.324;8.032;2022-11-20T08:51:03;21.42;;;12.13;;
60344;SDS011;46188;52.324;8.032;2022-11-20T08:53:29;18.98;;;11.35;;
60344;SDS011;46188;52.324;8.032;2022-11-20T08:55:54;30.08;;;18.02;;
60344;SDS011;46188;52.324;8.032;2022-11-20T08:58:21;20.02;;;12.23;;
60344;SDS011;46188;52.324;8.032;2022-11-20T09:00:47;20.80;;;11.20;;
60344;SDS011;46188;52.324;8.032;2022-11-20T09:03:13;18.60;;;10.90;;
60344;SDS011;46188;52.324;8.032;2022-11-20T09:05:38;18.77;;;10.93;;
60344;SDS011;46188;52.324;8.032;2022-11-20T09:08:04;19.13;;;10.60;;
60344;SDS011;46188;52.324;8.032;2022-11-20T09:10:29;17.95;;;10.68;;
60344;SDS011;46188;52.324;8.032;2022-11-20T09:12:54;17.70;;;11.00;;
60344;SDS011;46188;52.324;8.032;2022-11-20T09:15:20;20.83;;;11.77;;
60344;SDS011;46188;52.324;8.032;2022-11-20T09:17:53;16.83;;;10.30;;
60344;SDS011;46188;52.324;8.032;2022-11-20T09:20:23;19.70;;;10.60;;
60344;SDS011;46188;52.324;8.032;2022-11-20T09:22:48;16.85;;;10.00;;
60344;SDS011;46188;52.324;8.032;2022-11-20T09:25:14;19.38;;;11.35;;
60344;SDS011;46188;52.324;8.032;2022-11-20T09:27:39;18.75;;;10.95;;
60344;SDS011;46188;52.324;8.032;2022-11-20T09:30:08;21.52;;;10.68;;
60344;SDS011;46188;52.324;8.032;2022-11-20T09:32:34;17.45;;;10.98;;
60344;SDS011;46188;52.324;8.032;2022-11-20T09:35:00;18.42;;;11.35;;
60344;SDS011;46188;52.324;8.032;2022-11-20T09:37:26;23.20;;;13.65;;
60344;SDS011;46188;52.324;8.032;2022-11-20T09:39:51;19.58;;;11.15;;
60344;SDS011;46188;52.324;8.032;2022-11-20T09:42:27;19.88;;;12.07;;
60344;SDS011;46188;52.324;8.032;2022-11-20T09:45:21;22.83;;;13.13;;
60344;SDS011;46188;52.324;8.032;2022-11-20T09:48:01;20.42;;;11.70;;
60344;SDS011;46188;52.324;8.032;2022-11-20T09:50:36;21.75;;;12.27;;
60344;SDS011;46188;52.324;8.032;2022-11-20T09:56:08;24.63;;;11.75;;
60344;SDS011;46188;52.324;8.032;2022-11-20T09:58:42;24.75;;;12.00;;
60344;SDS011;46188;52.324;8.032;2022-11-20T10:01:14;22.25;;;11.52;;
60344;SDS011;46188;52.324;8.032;2022-11-20T10:06:31;26.38;;;12.77;;
60344;SDS011;46188;52.324;8.032;2022-11-20T10:09:04;19.98;;;11.70;;
60344;SDS011;46188;52.324;8.032;2022-11-20T10:11:56;24.20;;;12.77;;
60344;SDS011;46188;52.324;8.032;2022-11-20T10:17:03;24.83;;;12.48;;
60344;SDS011;46188;52.324;8.032;2022-11-20T10:26:11;22.60;;;12.80;;
60344;SDS011;46188;52.324;8.032;2022-11-20T10:31:08;27.02;;;13.80;;
60344;SDS011;46188;52.324;8.032;2022-11-20T10:33:40;21.83;;;11.93;;
60344;SDS011;46188;52.324;8.032;2022-11-20T10:36:17;28.60;;;15.15;;
60344;SDS011;46188;52.324;8.032;2022-11-20T10:38:46;22.98;;;13.70;;
60344;SDS011;46188;52.324;8.032;2022-11-20T10:41:20;23.98;;;14.15;;
60344;SDS011;46188;52.324;8.032;2022-11-20T10:44:12;28.10;;;15.10;;
60344;SDS011;46188;52.324;8.032;2022-11-20T10:47:19;25.38;;;14.00;;
60344;SDS011;46188;52.324;8.032;2022-11-20T10:49:50;24.38;;;12.75;;
60344;SDS011;46188;52.324;8.032;2022-11-20T10:52:25;24.77;;;14.32;;
60344;SDS011;46188;52.324;8.032;2022-11-20T11:00:30;23.92;;;13.63;;
60344;SDS011;46188;52.324;8.032;2022-11-20T11:02:56;25.42;;;13.85;;
60344;SDS011;46188;52.324;8.032;2022-11-20T11:05:48;24.10;;;14.02;;
60344;SDS011;46188;52.324;8.032;2022-11-20T11:08:19;25.45;;;13.43;;
60344;SDS011;46188;52.324;8.032;2022-11-20T11:10:51;23.70;;;12.43;;
60344;SDS011;46188;52.324;8.032;2022-11-20T11:13:26;24.33;;;12.90;;
60344;SDS011;46188;52.324;8.032;2022-11-20T11:15:54;26.90;;;12.77;;
60344;SDS011;46188;52.324;8.032;2022-11-20T11:18:27;22.40;;;11.80;;
60344;SDS011;46188;52.324;8.032;2022-11-20T11:20:55;24.63;;;12.57;;
60344;SDS011;46188;52.324;8.032;2022-11-20T11:23:32;25.17;;;13.65;;
60344;SDS011;46188;52.324;8.032;2022-11-20T11:26:02;24.65;;;12.27;;
60344;SDS011;46188;52.324;8.032;2022-11-20T11:28:29;31.20;;;14.52;;
60344;SDS011;46188;52.324;8.032;2022-11-20T11:30:55;31.10;;;14.43;;
60344;SDS011;46188;52.324;8.032;2022-11-20T11:33:25;31.48;;;15.20;;
60344;SDS011;46188;52.324;8.032;2022-11-20T11:35:56;29.08;;;15.20;;
60344;SDS011;46188;52.324;8.032;2022-11-20T11:40:55;28.70;;;13.80;;
60344;SDS011;46188;52.324;8.032;2022-11-20T11:43:23;27.88;;;13.85;;
60344;SDS011;46188;52.324;8.032;2022-11-20T11:51:41;30.80;;;15.23;;
60344;SDS011;46188;52.324;8.032;2022-11-20T11:57:17;28.77;;;13.52;;
60344;SDS011;46188;52.324;8.032;2022-11-20T12:04:54;28.58;;;13.93;;
60344;SDS011;46188;52.324;8.032;2022-11-20T12:10:00;28.50;;;13.32;;
60344;SDS011;46188;52.324;8.032;2022-11-20T12:12:32;28.02;;;14.18;;
60344;SDS011;46188;52.324;8.032;2022-11-20T12:15:08;27.27;;;13.95;;
60344;SDS011;46188;52.324;8.032;2022-11-20T12:17:37;27.92;;;14.30;;
60344;SDS011;46188;52.324;8.032;2022-11-20T12:20:05;30.70;;;14.82;;
60344;SDS011;46188;52.324;8.032;2022-11-20T12:22:43;29.42;;;15.13;;
60344;SDS011;46188;52.324;8.032;2022-11-20T12:25:26;31.67;;;15.60;;
60344;SDS011;46188;52.324;8.032;2022-11-20T12:30:24;28.52;;;14.13;;
60344;SDS011;46188;52.324;8.032;2022-11-20T12:33:11;30.67;;;13.77;;
60344;SDS011;46188;52.324;8.032;2022-11-20T12:38:58;29.67;;;16.00;;
60344;SDS011;46188;52.324;8.032;2022-11-20T12:41:44;30.88;;;15.65;;
60344;SDS011;46188;52.324;8.032;2022-11-20T12:59:32;26.27;;;13.77;;
60344;SDS011;46188;52.324;8.032;2022-11-20T13:07:37;26.40;;;13.63;;
60344;SDS011;46188;52.324;8.032;2022-11-20T13:10:03;27.08;;;12.63;;
60344;SDS011;46188;52.324;8.032;2022-11-20T13:12:44;25.30;;;12.75;;
60344;SDS011;46188;52.324;8.032;2022-11-20T13:18:03;25.42;;;13.38;;
60344;SDS011;46188;52.324;8.032;2022-11-20T13:20:30;28.73;;;13.90;;
60344;SDS011;46188;52.324;8.032;2022-11-20T13:22:58;27.67;;;13.73;;
60344;SDS011;46188;52.324;8.032;2022-11-20T13:25:28;23.88;;;13.45;;
60344;SDS011;46188;52.324;8.032;2022-11-20T13:30:26;21.25;;;11.48;;
60344;SDS011;46188;52.324;8.032;2022-11-20T13:33:02;25.90;;;12.25;;
60344;SDS011;46188;52.324;8.032;2022-11-20T13:35:33;25.08;;;12.57;;
60344;SDS011;46188;52.324;8.032;2022-11-20T13:38:07;22.55;;;13.55;;
60344;SDS011;46188;52.324;8.032;2022-11-20T13:40:38;23.55;;;13.00;;
60344;SDS011;46188;52.324;8.032;2022-11-20T13:43:44;26.05;;;13.98;;
60344;SDS011;46188;52.324;8.032;2022-11-20T13:46:12;26.80;;;14.77;;
60344;SDS011;46188;52.324;8.032;2022-11-20T13:48:39;26.35;;;14.68;;
60344;SDS011;46188;52.324;8.032;2022-11-20T13:51:15;24.85;;;13.45;;
60344;SDS011;46188;52.324;8.032;2022-11-20T14:02:13;20.90;;;12.23;;
60344;SDS011;46188;52.324;8.032;2022-11-20T14:04:42;24.45;;;14.10;;
60344;SDS011;46188;52.324;8.032;2022-11-20T14:07:12;26.52;;;15.10;;
60344;SDS011;46188;52.324;8.032;2022-11-20T14:09:37;23.40;;;13.30;;
60344;SDS011;46188;52.324;8.032;2022-11-20T14:12:04;25.13;;;14.27;;
60344;SDS011;46188;52.324;8.032;2022-11-20T14:14:47;22.88;;;14.27;;
60344;SDS011;46188;52.324;8.032;2022-11-20T14:19:43;22.90;;;13.70;;
60344;SDS011;46188;52.324;8.032;2022-11-20T14:24:45;25.25;;;14.50;;
60344;SDS011;46188;52.324;8.032;2022-11-20T14:27:12;23.75;;;13.65;;
60344;SDS011;46188;52.324;8.032;2022-11-20T14:29:39;24.85;;;13.77;;
60344;SDS011;46188;52.324;8.032;2022-11-20T14:32:08;19.80;;;12.38;;
60344;SDS011;46188;52.324;8.032;2022-11-20T14:34:37;21.27;;;13.60;;
60344;SDS011;46188;52.324;8.032;2022-11-20T14:37:06;24.98;;;14.45;;
60344;SDS011;46188;52.324;8.032;2022-11-20T14:39:37;26.42;;;14.48;;
60344;SDS011;46188;52.324;8.032;2022-11-20T14:42:16;27.98;;;14.35;;
60344;SDS011;46188;52.324;8.032;2022-11-20T14:44:44;25.85;;;15.13;;
60344;SDS011;46188;52.324;8.032;2022-11-20T14:47:12;28.02;;;15.23;;
60344;SDS011;46188;52.324;8.032;2022-11-20T14:49:40;24.45;;;14.55;;
60344;SDS011;46188;52.324;8.032;2022-11-20T14:52:14;23.73;;;14.73;;
60344;SDS011;46188;52.324;8.032;2022-11-20T14:54:52;27.25;;;15.25;;
60344;SDS011;46188;52.324;8.032;2022-11-20T15:02:49;23.95;;;13.98;;
60344;SDS011;46188;52.324;8.032;2022-11-20T15:05:17;22.90;;;13.75;;
60344;SDS011;46188;52.324;8.032;2022-11-20T15:07:45;26.98;;;14.98;;
60344;SDS011;46188;52.324;8.032;2022-11-20T15:17:52;22.98;;;13.23;;
60344;SDS011;46188;52.324;8.032;2022-11-20T15:20:18;24.65;;;13.43;;
60344;SDS011;46188;52.324;8.032;2022-11-20T15:22:46;26.45;;;14.43;;
60344;SDS011;46188;52.324;8.032;2022-11-20T15:25:12;24.00;;;13.60;;
60344;SDS011;46188;52.324;8.032;2022-11-20T15:27:42;24.60;;;14.27;;
60344;SDS011;46188;52.324;8.032;2022-11-20T15:30:13;26.60;;;16.08;;
60344;SDS011;46188;52.324;8.032;2022-11-20T15:32:41;27.25;;;15.27;;
60344;SDS011;46188;52.324;8.032;2022-11-20T15:35:07;27.02;;;15.05;;
60344;SDS011;46188;52.324;8.032;2022-11-20T15:37:33;25.30;;;14.02;;
60344;SDS011;46188;52.324;8.032;2022-11-20T15:39:59;25.02;;;14.57;;
60344;SDS011;46188;52.324;8.032;2022-11-20T15:42:24;24.40;;;14.32;;
60344;SDS011;46188;52.324;8.032;2022-11-20T15:44:50;28.90;;;14.77;;
60344;SDS011;46188;52.324;8.032;2022-11-20T15:47:15;26.30;;;14.60;;
60344;SDS011;46188;52.324;8.032;2022-11-20T15:49:42;28.00;;;14.93;;
60344;SDS011;46188;52.324;8.032;2022-11-20T15:52:08;27.40;;;13.73;;
60344;SDS011;46188;52.324;8.032;2022-11-20T15:54:41;19.60;;;10.50;;
60344;SDS011;46188;52.324;8.032;2022-11-20T15:57:06;25.40;;;15.38;;
60344;SDS011;46188;52.324;8.032;2022-11-20T15:59:32;29.88;;;14.70;;
60344;SDS011;46188;52.324;8.032;2022-11-20T16:01:57;21.92;;;13.00;;
60344;SDS011;46188;52.324;8.032;2022-11-20T16:04:23;25.20;;;13.27;;
60344;SDS011;46188;52.324;8.032;2022-11-20T16:06:48;24.17;;;13.95;;
60344;SDS011;46188;52.324;8.032;2022-11-20T16:09:14;25.20;;;13.60;;
60344;SDS011;46188;52.324;8.032;2022-11-20T16:11:39;24.05;;;13.48;;
60344;SDS011;46188;52.324;8.032;2022-11-20T16:14:05;24.55;;;15.32;;
60344;SDS011;46188;52.324;8.032;2022-11-20T16:16:50;21.58;;;12.57;;
60344;SDS011;46188;52.324;8.032;2022-11-20T16:19:16;29.40;;;17.92;;